sensor_id;sensor_type;location;lat;lon;timestamp;P1;durP1;ratioP1;P2;durP2;ratioP2
8572;SDS011;4324;42.012;24.872;2023-01-15T00:01:46;10.60;;;8.77;;
8572;SDS011;4324;42.012;24.872;2023-01-15T00:04:13;12.30;;;9.00;;
8572;SDS011;4324;42.012;24.872;2023-01-15T00:06:42;11.80;;;9.17;;
8572;SDS011;4324;42.012;24.872;2023-01-15T00:09:12;13.37;;;10.47;;
8572;SDS011;4324;42.012;24.872;2023-01-15T00:11:40;15.73;;;10.17;;
8572;SDS011;4324;42.012;24.872;2023-01-15T00:14:07;16.57;;;11.47;;
8572;SDS011;4324;42.012;24.872;2023-01-15T00:16:35;17.90;;;11.80;;
8572;SDS011;4324;42.012;24.872;2023-01-15T00:19:01;16.00;;;10.87;;
8572;SDS011;4324;42.012;24.872;2023-01-15T00:21:32;11.87;;;9.33;;
8572;SDS011;4324;42.012;24.872;2023-01-15T00:23:59;14.57;;;9.60;;
8572;SDS011;4324;42.012;24.872;2023-01-15T00:26:45;11.50;;;8.83;;
8572;SDS011;4324;42.012;24.872;2023-01-15T00:29:30;11.40;;;9.50;;
8572;SDS011;4324;42.012;24.872;2023-01-15T00:31:58;12.23;;;9.33;;
8572;SDS011;4324;42.012;24.872;2023-01-15T00:34:28;13.40;;;10.03;;
8572;SDS011;4324;42.012;24.872;2023-01-15T00:36:55;12.10;;;8.83;;
8572;SDS011;4324;42.012;24.872;2023-01-15T00:39:22;13.30;;;9.57;;
8572;SDS011;4324;42.012;24.872;2023-01-15T00:41:50;9.90;;;8.47;;
8572;SDS011;4324;42.012;24.872;2023-01-15T00:44:18;12.77;;;9.30;;
8572;SDS011;4324;42.012;24.872;2023-01-15T00:46:45;12.53;;;8.77;;
8572;SDS011;4324;42.012;24.872;2023-01-15T00:49:13;9.67;;;7.77;;
8572;SDS011;4324;42.012;24.872;2023-01-15T00:51:40;10.53;;;7.87;;
8572;SDS011;4324;42.012;24.872;2023-01-15T00:54:07;9.20;;;7.27;;
8572;SDS011;4324;42.012;24.872;2023-01-15T00:56:33;7.50;;;6.60;;
8572;SDS011;4324;42.012;24.872;2023-01-15T00:59:02;8.00;;;6.73;;
8572;SDS011;4324;42.012;24.872;2023-01-15T01:01:29;7.80;;;6.40;;
8572;SDS011;4324;42.012;24.872;2023-01-15T01:03:57;6.53;;;5.87;;
8572;SDS011;4324;42.012;24.872;2023-01-15T01:06:24;6.93;;;6.10;;
8572;SDS011;4324;42.012;24.872;2023-01-15T01:08:51;7.07;;;6.07;;
8572;SDS011;4324;42.012;24.872;2023-01-15T01:11:18;6.80;;;5.80;;
8572;SDS011;4324;42.012;24.872;2023-01-15T01:13:48;8.90;;;6.60;;
8572;SDS011;4324;42.012;24.872;2023-01-15T01:16:26;7.63;;;6.87;;
8572;SDS011;4324;42.012;24.872;2023-01-15T01:18:56;8.37;;;7.37;;
8572;SDS011;4324;42.012;24.872;2023-01-15T01:21:24;7.80;;;6.97;;
8572;SDS011;4324;42.012;24.872;2023-01-15T01:23:51;7.83;;;7.03;;
8572;SDS011;4324;42.012;24.872;2023-01-15T01:26:18;8.80;;;7.33;;
8572;SDS011;4324;42.012;24.872;2023-01-15T01:28:47;7.97;;;6.80;;
8572;SDS011;4324;42.012;24.872;2023-01-15T01:31:15;7.07;;;6.10;;
8572;SDS011;4324;42.012;24.872;2023-01-15T01:33:44;6.57;;;5.97;;
8572;SDS011;4324;42.012;24.872;2023-01-15T01:36:13;6.80;;;5.50;;
8572;SDS011;4324;42.012;24.872;2023-01-15T01:38:40;5.47;;;4.80;;
8572;SDS011;4324;42.012;24.872;2023-01-15T01:41:07;5.90;;;5.30;;
8572;SDS011;4324;42.012;24.872;2023-01-15T01:43:49;5.33;;;4.83;;
8572;SDS011;4324;42.012;24.872;2023-01-15T01:46:18;5.07;;;4.57;;
8572;SDS011;4324;42.012;24.872;2023-01-15T01:48:46;6.57;;;5.17;;
8572;SDS011;4324;42.012;24.872;2023-01-15T01:51:15;5.50;;;4.63;;
8572;SDS011;4324;42.012;24.872;2023-01-15T01:53:44;6.47;;;4.30;;
8572;SDS011;4324;42.012;24.872;2023-01-15T01:56:11;5.27;;;4.30;;
8572;SDS011;4324;42.012;24.872;2023-01-15T01:58:41;5.93;;;5.00;;
8572;SDS011;4324;42.012;24.872;2023-01-15T02:01:11;5.03;;;4.30;;
8572;SDS011;4324;42.012;24.872;2023-01-15T02:03:37;5.97;;;4.87;;
8572;SDS011;4324;42.012;24.872;2023-01-15T02:06:07;5.50;;;4.63;;
8572;SDS011;4324;42.012;24.872;2023-01-15T02:08:35;5.70;;;5.07;;
8572;SDS011;4324;42.012;24.872;2023-01-15T02:11:04;6.03;;;4.90;;
8572;SDS011;4324;42.012;24.872;2023-01-15T02:13:34;5.83;;;5.17;;
8572;SDS011;4324;42.012;24.872;2023-01-15T02:16:05;6.27;;;5.27;;
8572;SDS011;4324;42.012;24.872;2023-01-15T02:18:39;7.20;;;5.37;;
8572;SDS011;4324;42.012;24.872;2023-01-15T02:21:15;6.27;;;5.37;;
8572;SDS011;4324;42.012;24.872;2023-01-15T02:24:00;5.70;;;4.80;;
8572;SDS011;4324;42.012;24.872;2023-01-15T02:29:27;5.07;;;4.57;;
8572;SDS011;4324;42.012;24.872;2023-01-15T02:32:00;6.60;;;4.67;;
8572;SDS011;4324;42.012;24.872;2023-01-15T02:34:31;5.90;;;4.60;;
8572;SDS011;4324;42.012;24.872;2023-01-15T02:37:00;6.50;;;5.43;;
8572;SDS011;4324;42.012;24.872;2023-01-15T02:39:31;5.07;;;4.47;;
8572;SDS011;4324;42.012;24.872;2023-01-15T02:42:03;4.43;;;4.00;;
8572;SDS011;4324;42.012;24.872;2023-01-15T02:44:34;4.63;;;4.00;;
8572;SDS011;4324;42.012;24.872;2023-01-15T02:47:05;4.57;;;4.13;;
8572;SDS011;4324;42.012;24.872;2023-01-15T02:49:33;5.37;;;4.70;;
8572;SDS011;4324;42.012;24.872;2023-01-15T02:52:04;5.63;;;4.90;;
8572;SDS011;4324;42.012;24.872;2023-01-15T02:54:34;5.17;;;4.67;;
8572;SDS011;4324;42.012;24.872;2023-01-15T02:57:09;5.67;;;5.10;;
8572;SDS011;4324;42.012;24.872;2023-01-15T02:59:38;6.17;;;5.57;;
8572;SDS011;4324;42.012;24.872;2023-01-15T03:02:09;6.23;;;5.63;;
8572;SDS011;4324;42.012;24.872;2023-01-15T03:04:40;6.17;;;5.23;;
8572;SDS011;4324;42.012;24.872;2023-01-15T03:07:13;5.50;;;4.63;;
8572;SDS011;4324;42.012;24.872;2023-01-15T03:09:44;5.30;;;4.80;;
8572;SDS011;4324;42.012;24.872;2023-01-15T03:12:14;5.40;;;4.80;;
8572;SDS011;4324;42.012;24.872;2023-01-15T03:14:50;5.40;;;4.90;;
8572;SDS011;4324;42.012;24.872;2023-01-15T03:17:23;5.63;;;4.47;;
8572;SDS011;4324;42.012;24.872;2023-01-15T03:19:57;5.20;;;4.70;;
8572;SDS011;4324;42.012;24.872;2023-01-15T03:22:33;5.23;;;4.73;;
8572;SDS011;4324;42.012;24.872;2023-01-15T03:25:05;4.67;;;4.00;;
8572;SDS011;4324;42.012;24.872;2023-01-15T03:27:36;5.80;;;5.13;;
8572;SDS011;4324;42.012;24.872;2023-01-15T03:30:04;5.30;;;4.80;;
8572;SDS011;4324;42.012;24.872;2023-01-15T03:32:32;5.57;;;5.00;;
8572;SDS011;4324;42.012;24.872;2023-01-15T03:34:59;5.40;;;4.90;;
8572;SDS011;4324;42.012;24.872;2023-01-15T03:37:28;6.20;;;5.50;;
8572;SDS011;4324;42.012;24.872;2023-01-15T03:39:56;5.57;;;5.03;;
8572;SDS011;4324;42.012;24.872;2023-01-15T03:42:30;5.53;;;4.93;;
8572;SDS011;4324;42.012;24.872;2023-01-15T03:45:09;5.77;;;4.23;;
8572;SDS011;4324;42.012;24.872;2023-01-15T03:47:43;4.87;;;3.90;;
8572;SDS011;4324;42.012;24.872;2023-01-15T03:50:17;5.70;;;4.43;;
8572;SDS011;4324;42.012;24.872;2023-01-15T03:52:52;5.77;;;4.87;;
8572;SDS011;4324;42.012;24.872;2023-01-15T03:55:31;5.20;;;4.70;;
8572;SDS011;4324;42.012;24.872;2023-01-15T03:58:08;5.37;;;4.87;;
8572;SDS011;4324;42.012;24.872;2023-01-15T04:00:40;4.73;;;4.33;;
8572;SDS011;4324;42.012;24.872;2023-01-15T04:03:11;5.20;;;4.70;;
8572;SDS011;4324;42.012;24.872;2023-01-15T04:05:39;6.17;;;5.57;;
8572;SDS011;4324;42.012;24.872;2023-01-15T04:08:07;6.10;;;5.50;;
8572;SDS011;4324;42.012;24.872;2023-01-15T04:10:35;6.77;;;6.13;;
8572;SDS011;4324;42.012;24.872;2023-01-15T04:13:02;6.77;;;6.07;;
8572;SDS011;4324;42.012;24.872;2023-01-15T04:15:31;7.03;;;6.00;;
8572;SDS011;4324;42.012;24.872;2023-01-15T04:17:58;7.73;;;5.90;;
8572;SDS011;4324;42.012;24.872;2023-01-15T04:20:24;6.53;;;5.73;;
8572;SDS011;4324;42.012;24.872;2023-01-15T04:22:51;7.43;;;6.10;;
8572;SDS011;4324;42.012;24.872;2023-01-15T04:25:18;6.60;;;5.90;;
8572;SDS011;4324;42.012;24.872;2023-01-15T04:27:45;6.30;;;5.70;;
8572;SDS011;4324;42.012;24.872;2023-01-15T04:30:12;8.20;;;6.23;;
8572;SDS011;4324;42.012;24.872;2023-01-15T04:32:43;7.87;;;6.73;;
8572;SDS011;4324;42.012;24.872;2023-01-15T04:35:09;7.80;;;6.50;;
8572;SDS011;4324;42.012;24.872;2023-01-15T04:37:36;8.57;;;6.87;;
8572;SDS011;4324;42.012;24.872;2023-01-15T04:40:04;6.97;;;6.17;;
8572;SDS011;4324;42.012;24.872;2023-01-15T04:42:31;8.30;;;6.83;;
8572;SDS011;4324;42.012;24.872;2023-01-15T04:45:16;8.27;;;7.47;;
8572;SDS011;4324;42.012;24.872;2023-01-15T04:47:45;8.37;;;6.77;;
8572;SDS011;4324;42.012;24.872;2023-01-15T04:50:12;8.33;;;6.63;;
8572;SDS011;4324;42.012;24.872;2023-01-15T04:52:39;9.77;;;7.53;;
8572;SDS011;4324;42.012;24.872;2023-01-15T04:55:06;8.47;;;7.03;;
8572;SDS011;4324;42.012;24.872;2023-01-15T04:57:33;9.97;;;8.17;;
8572;SDS011;4324;42.012;24.872;2023-01-15T05:00:01;10.40;;;8.70;;
8572;SDS011;4324;42.012;24.872;2023-01-15T05:02:29;12.70;;;11.30;;
8572;SDS011;4324;42.012;24.872;2023-01-15T05:04:57;11.47;;;9.33;;
8572;SDS011;4324;42.012;24.872;2023-01-15T05:07:24;12.37;;;10.43;;
8572;SDS011;4324;42.012;24.872;2023-01-15T05:09:51;15.53;;;12.60;;
8572;SDS011;4324;42.012;24.872;2023-01-15T05:12:19;18.33;;;12.73;;
8572;SDS011;4324;42.012;24.872;2023-01-15T05:14:46;16.33;;;13.30;;
8572;SDS011;4324;42.012;24.872;2023-01-15T05:17:13;18.83;;;13.60;;
8572;SDS011;4324;42.012;24.872;2023-01-15T05:19:39;15.93;;;13.90;;
8572;SDS011;4324;42.012;24.872;2023-01-15T05:22:08;17.70;;;14.63;;
8572;SDS011;4324;42.012;24.872;2023-01-15T05:24:35;14.87;;;12.40;;
8572;SDS011;4324;42.012;24.872;2023-01-15T05:27:02;14.73;;;11.17;;
8572;SDS011;4324;42.012;24.872;2023-01-15T05:29:30;13.40;;;10.27;;
8572;SDS011;4324;42.012;24.872;2023-01-15T05:31:57;13.27;;;9.70;;
8572;SDS011;4324;42.012;24.872;2023-01-15T05:34:24;11.80;;;9.27;;
8572;SDS011;4324;42.012;24.872;2023-01-15T05:36:51;12.07;;;9.57;;
8572;SDS011;4324;42.012;24.872;2023-01-15T05:39:19;10.50;;;8.33;;
8572;SDS011;4324;42.012;24.872;2023-01-15T05:41:46;12.53;;;9.63;;
8572;SDS011;4324;42.012;24.872;2023-01-15T05:44:18;12.90;;;9.87;;
8572;SDS011;4324;42.012;24.872;2023-01-15T05:46:47;12.23;;;9.27;;
8572;SDS011;4324;42.012;24.872;2023-01-15T05:49:16;12.93;;;10.00;;
8572;SDS011;4324;42.012;24.872;2023-01-15T05:51:44;12.83;;;9.80;;
8572;SDS011;4324;42.012;24.872;2023-01-15T05:54:12;15.37;;;10.57;;
8572;SDS011;4324;42.012;24.872;2023-01-15T05:56:41;14.10;;;10.53;;
8572;SDS011;4324;42.012;24.872;2023-01-15T05:59:10;12.07;;;10.10;;
8572;SDS011;4324;42.012;24.872;2023-01-15T06:01:38;14.87;;;11.07;;
8572;SDS011;4324;42.012;24.872;2023-01-15T06:04:07;19.27;;;13.43;;
8572;SDS011;4324;42.012;24.872;2023-01-15T06:06:38;16.67;;;11.73;;
8572;SDS011;4324;42.012;24.872;2023-01-15T06:09:05;14.43;;;11.13;;
8572;SDS011;4324;42.012;24.872;2023-01-15T06:11:32;14.97;;;12.30;;
8572;SDS011;4324;42.012;24.872;2023-01-15T06:14:01;14.07;;;11.33;;
8572;SDS011;4324;42.012;24.872;2023-01-15T06:16:27;15.57;;;13.13;;
8572;SDS011;4324;42.012;24.872;2023-01-15T06:18:54;17.47;;;14.67;;
8572;SDS011;4324;42.012;24.872;2023-01-15T06:21:26;18.30;;;14.70;;
8572;SDS011;4324;42.012;24.872;2023-01-15T06:23:52;18.67;;;14.30;;
8572;SDS011;4324;42.012;24.872;2023-01-15T06:26:19;17.07;;;12.97;;
8572;SDS011;4324;42.012;24.872;2023-01-15T06:28:47;17.47;;;13.90;;
8572;SDS011;4324;42.012;24.872;2023-01-15T06:31:17;18.50;;;14.97;;
8572;SDS011;4324;42.012;24.872;2023-01-15T06:33:45;16.53;;;13.87;;
8572;SDS011;4324;42.012;24.872;2023-01-15T06:36:13;17.47;;;15.07;;
8572;SDS011;4324;42.012;24.872;2023-01-15T06:38:42;17.83;;;15.47;;
8572;SDS011;4324;42.012;24.872;2023-01-15T06:41:11;20.80;;;15.93;;
8572;SDS011;4324;42.012;24.872;2023-01-15T06:43:53;23.00;;;18.13;;
8572;SDS011;4324;42.012;24.872;2023-01-15T06:46:39;22.73;;;17.73;;
8572;SDS011;4324;42.012;24.872;2023-01-15T06:49:27;23.50;;;18.60;;
8572;SDS011;4324;42.012;24.872;2023-01-15T06:51:54;31.80;;;21.63;;
8572;SDS011;4324;42.012;24.872;2023-01-15T06:54:20;29.73;;;21.20;;
8572;SDS011;4324;42.012;24.872;2023-01-15T06:56:47;28.53;;;22.50;;
8572;SDS011;4324;42.012;24.872;2023-01-15T06:59:14;28.47;;;21.40;;
8572;SDS011;4324;42.012;24.872;2023-01-15T07:01:43;24.47;;;19.23;;
8572;SDS011;4324;42.012;24.872;2023-01-15T07:04:10;25.33;;;19.70;;
8572;SDS011;4324;42.012;24.872;2023-01-15T07:06:36;23.17;;;17.33;;
8572;SDS011;4324;42.012;24.872;2023-01-15T07:09:03;21.53;;;17.47;;
8572;SDS011;4324;42.012;24.872;2023-01-15T07:11:30;23.40;;;17.47;;
8572;SDS011;4324;42.012;24.872;2023-01-15T07:13:58;21.83;;;17.67;;
8572;SDS011;4324;42.012;24.872;2023-01-15T07:16:31;23.03;;;19.07;;
8572;SDS011;4324;42.012;24.872;2023-01-15T07:19:01;24.67;;;19.93;;
8572;SDS011;4324;42.012;24.872;2023-01-15T07:21:29;26.90;;;18.63;;
8572;SDS011;4324;42.012;24.872;2023-01-15T07:23:57;27.07;;;20.77;;
8572;SDS011;4324;42.012;24.872;2023-01-15T07:26:25;29.37;;;22.70;;
8572;SDS011;4324;42.012;24.872;2023-01-15T07:28:52;27.13;;;22.10;;
8572;SDS011;4324;42.012;24.872;2023-01-15T07:31:19;26.13;;;19.80;;
8572;SDS011;4324;42.012;24.872;2023-01-15T07:33:46;23.50;;;18.93;;
8572;SDS011;4324;42.012;24.872;2023-01-15T07:36:14;23.97;;;18.57;;
8572;SDS011;4324;42.012;24.872;2023-01-15T07:38:41;19.53;;;13.20;;
8572;SDS011;4324;42.012;24.872;2023-01-15T07:41:08;16.30;;;12.63;;
8572;SDS011;4324;42.012;24.872;2023-01-15T07:43:52;16.63;;;12.60;;
8572;SDS011;4324;42.012;24.872;2023-01-15T07:46:45;13.37;;;10.10;;
8572;SDS011;4324;42.012;24.872;2023-01-15T07:49:30;14.10;;;11.07;;
8572;SDS011;4324;42.012;24.872;2023-01-15T07:52:15;13.83;;;11.20;;
8572;SDS011;4324;42.012;24.872;2023-01-15T07:54:42;16.17;;;12.53;;
8572;SDS011;4324;42.012;24.872;2023-01-15T07:57:10;12.37;;;10.87;;
8572;SDS011;4324;42.012;24.872;2023-01-15T07:59:38;11.83;;;10.10;;
8572;SDS011;4324;42.012;24.872;2023-01-15T08:02:05;13.43;;;10.87;;
8572;SDS011;4324;42.012;24.872;2023-01-15T08:04:34;12.23;;;9.93;;
8572;SDS011;4324;42.012;24.872;2023-01-15T08:07:02;14.70;;;10.97;;
8572;SDS011;4324;42.012;24.872;2023-01-15T08:09:31;13.67;;;11.10;;
8572;SDS011;4324;42.012;24.872;2023-01-15T08:11:58;15.40;;;12.80;;
8572;SDS011;4324;42.012;24.872;2023-01-15T08:14:43;10.37;;;9.20;;
8572;SDS011;4324;42.012;24.872;2023-01-15T08:17:28;14.40;;;12.63;;
8572;SDS011;4324;42.012;24.872;2023-01-15T08:19:55;14.20;;;12.80;;
8572;SDS011;4324;42.012;24.872;2023-01-15T08:22:22;14.67;;;13.10;;
8572;SDS011;4324;42.012;24.872;2023-01-15T08:24:51;16.43;;;11.57;;
8572;SDS011;4324;42.012;24.872;2023-01-15T08:27:17;13.37;;;11.90;;
8572;SDS011;4324;42.012;24.872;2023-01-15T08:29:44;11.27;;;9.37;;
8572;SDS011;4324;42.012;24.872;2023-01-15T08:32:11;11.83;;;10.13;;
8572;SDS011;4324;42.012;24.872;2023-01-15T08:34:38;11.40;;;10.20;;
8572;SDS011;4324;42.012;24.872;2023-01-15T08:37:05;15.23;;;12.63;;
8572;SDS011;4324;42.012;24.872;2023-01-15T08:39:32;15.97;;;12.10;;
8572;SDS011;4324;42.012;24.872;2023-01-15T08:42:00;14.57;;;11.83;;
8572;SDS011;4324;42.012;24.872;2023-01-15T08:44:27;13.47;;;12.07;;
8572;SDS011;4324;42.012;24.872;2023-01-15T08:46:54;13.70;;;11.10;;
8572;SDS011;4324;42.012;24.872;2023-01-15T08:49:21;12.43;;;10.97;;
8572;SDS011;4324;42.012;24.872;2023-01-15T08:51:48;15.03;;;12.37;;
8572;SDS011;4324;42.012;24.872;2023-01-15T08:54:16;14.47;;;12.60;;
8572;SDS011;4324;42.012;24.872;2023-01-15T08:56:44;17.13;;;14.30;;
8572;SDS011;4324;42.012;24.872;2023-01-15T08:59:13;14.47;;;12.83;;
8572;SDS011;4324;42.012;24.872;2023-01-15T09:01:40;15.30;;;12.33;;
8572;SDS011;4324;42.012;24.872;2023-01-15T09:04:08;10.87;;;9.77;;
8572;SDS011;4324;42.012;24.872;2023-01-15T09:06:38;10.67;;;9.63;;
8572;SDS011;4324;42.012;24.872;2023-01-15T09:09:05;12.00;;;9.97;;
8572;SDS011;4324;42.012;24.872;2023-01-15T09:11:32;11.23;;;9.80;;
8572;SDS011;4324;42.012;24.872;2023-01-15T09:14:00;9.93;;;8.20;;
8572;SDS011;4324;42.012;24.872;2023-01-15T09:16:28;8.83;;;7.73;;
8572;SDS011;4324;42.012;24.872;2023-01-15T09:18:56;10.17;;;7.87;;
8572;SDS011;4324;42.012;24.872;2023-01-15T09:21:23;14.90;;;13.30;;
8572;SDS011;4324;42.012;24.872;2023-01-15T09:23:50;15.13;;;13.53;;
8572;SDS011;4324;42.012;24.872;2023-01-15T09:26:28;17.97;;;15.67;;
8572;SDS011;4324;42.012;24.872;2023-01-15T09:28:56;18.60;;;16.70;;
8572;SDS011;4324;42.012;24.872;2023-01-15T09:31:23;9.33;;;8.33;;
8572;SDS011;4324;42.012;24.872;2023-01-15T09:33:52;20.10;;;18.20;;
8572;SDS011;4324;42.012;24.872;2023-01-15T09:36:21;12.43;;;11.20;;
8572;SDS011;4324;42.012;24.872;2023-01-15T09:38:50;12.37;;;11.07;;
8572;SDS011;4324;42.012;24.872;2023-01-15T09:41:17;9.20;;;8.03;;
8572;SDS011;4324;42.012;24.872;2023-01-15T09:44:09;8.43;;;7.53;;
8572;SDS011;4324;42.012;24.872;2023-01-15T09:46:47;8.50;;;7.27;;
8572;SDS011;4324;42.012;24.872;2023-01-15T09:49:26;8.13;;;6.27;;
8572;SDS011;4324;42.012;24.872;2023-01-15T09:52:05;8.40;;;6.30;;
8572;SDS011;4324;42.012;24.872;2023-01-15T09:54:44;7.07;;;6.20;;
8572;SDS011;4324;42.012;24.872;2023-01-15T09:57:20;7.73;;;6.93;;
8572;SDS011;4324;42.012;24.872;2023-01-15T09:59:50;8.20;;;7.40;;
8572;SDS011;4324;42.012;24.872;2023-01-15T10:02:26;8.30;;;7.23;;
8572;SDS011;4324;42.012;24.872;2023-01-15T10:05:00;9.70;;;7.97;;
8572;SDS011;4324;42.012;24.872;2023-01-15T10:07:33;12.83;;;10.37;;
8572;SDS011;4324;42.012;24.872;2023-01-15T10:10:09;9.80;;;8.00;;
8572;SDS011;4324;42.012;24.872;2023-01-15T10:12:39;10.73;;;9.10;;
8572;SDS011;4324;42.012;24.872;2023-01-15T10:15:23;12.27;;;9.93;;
8572;SDS011;4324;42.012;24.872;2023-01-15T10:17:55;12.43;;;10.50;;
8572;SDS011;4324;42.012;24.872;2023-01-15T10:20:39;9.43;;;8.33;;
8572;SDS011;4324;42.012;24.872;2023-01-15T10:26:01;8.93;;;7.50;;
8572;SDS011;4324;42.012;24.872;2023-01-15T10:28:39;9.30;;;8.00;;
8572;SDS011;4324;42.012;24.872;2023-01-15T10:31:18;9.83;;;8.00;;
8572;SDS011;4324;42.012;24.872;2023-01-15T10:33:51;8.47;;;7.43;;
8572;SDS011;4324;42.012;24.872;2023-01-15T10:36:52;9.80;;;8.80;;
8572;SDS011;4324;42.012;24.872;2023-01-15T10:39:26;11.33;;;9.00;;
8572;SDS011;4324;42.012;24.872;2023-01-15T10:42:00;12.00;;;10.30;;
8572;SDS011;4324;42.012;24.872;2023-01-15T10:44:40;12.17;;;9.87;;
8572;SDS011;4324;42.012;24.872;2023-01-15T10:47:18;11.43;;;10.20;;
8572;SDS011;4324;42.012;24.872;2023-01-15T10:49:51;13.37;;;10.87;;
8572;SDS011;4324;42.012;24.872;2023-01-15T10:52:23;14.57;;;11.50;;
8572;SDS011;4324;42.012;24.872;2023-01-15T10:54:54;14.10;;;12.43;;
8572;SDS011;4324;42.012;24.872;2023-01-15T10:57:34;14.87;;;11.73;;
8572;SDS011;4324;42.012;24.872;2023-01-15T11:00:08;13.43;;;11.83;;
8572;SDS011;4324;42.012;24.872;2023-01-15T11:02:38;16.97;;;13.63;;
8572;SDS011;4324;42.012;24.872;2023-01-15T11:05:10;14.67;;;12.70;;
8572;SDS011;4324;42.012;24.872;2023-01-15T11:07:41;15.93;;;12.73;;
8572;SDS011;4324;42.012;24.872;2023-01-15T11:10:11;14.07;;;11.03;;
8572;SDS011;4324;42.012;24.872;2023-01-15T11:12:41;14.90;;;12.07;;
8572;SDS011;4324;42.012;24.872;2023-01-15T11:15:32;13.40;;;10.80;;
8572;SDS011;4324;42.012;24.872;2023-01-15T11:18:18;12.43;;;10.67;;
8572;SDS011;4324;42.012;24.872;2023-01-15T11:21:09;12.73;;;9.83;;
8572;SDS011;4324;42.012;24.872;2023-01-15T11:23:40;12.63;;;10.73;;
8572;SDS011;4324;42.012;24.872;2023-01-15T11:26:07;14.67;;;11.07;;
8572;SDS011;4324;42.012;24.872;2023-01-15T11:28:36;14.37;;;11.67;;
8572;SDS011;4324;42.012;24.872;2023-01-15T11:31:05;10.80;;;9.43;;
8572;SDS011;4324;42.012;24.872;2023-01-15T11:33:34;13.27;;;10.17;;
8572;SDS011;4324;42.012;24.872;2023-01-15T11:36:02;12.13;;;9.80;;
8572;SDS011;4324;42.012;24.872;2023-01-15T11:38:41;14.03;;;10.33;;
8572;SDS011;4324;42.012;24.872;2023-01-15T11:41:18;11.07;;;9.77;;
8572;SDS011;4324;42.012;24.872;2023-01-15T11:43:52;11.13;;;9.30;;
8572;SDS011;4324;42.012;24.872;2023-01-15T11:46:38;11.77;;;9.13;;
8572;SDS011;4324;42.012;24.872;2023-01-15T11:49:23;10.03;;;8.33;;
8572;SDS011;4324;42.012;24.872;2023-01-15T11:52:08;10.87;;;9.23;;
8572;SDS011;4324;42.012;24.872;2023-01-15T11:54:40;13.90;;;12.37;;
8572;SDS011;4324;42.012;24.872;2023-01-15T11:57:09;17.63;;;15.47;;
8572;SDS011;4324;42.012;24.872;2023-01-15T11:59:36;18.97;;;15.60;;
8572;SDS011;4324;42.012;24.872;2023-01-15T12:02:06;10.00;;;8.67;;
8572;SDS011;4324;42.012;24.872;2023-01-15T12:04:45;11.50;;;9.30;;
8572;SDS011;4324;42.012;24.872;2023-01-15T12:07:16;9.87;;;8.57;;
8572;SDS011;4324;42.012;24.872;2023-01-15T12:10:01;13.53;;;9.93;;
8572;SDS011;4324;42.012;24.872;2023-01-15T12:12:48;12.10;;;10.43;;
8572;SDS011;4324;42.012;24.872;2023-01-15T12:15:28;13.80;;;9.73;;
8572;SDS011;4324;42.012;24.872;2023-01-15T12:21:20;10.90;;;9.13;;
8572;SDS011;4324;42.012;24.872;2023-01-15T12:24:08;13.37;;;10.50;;
8572;SDS011;4324;42.012;24.872;2023-01-15T12:26:53;19.37;;;13.00;;
8572;SDS011;4324;42.012;24.872;2023-01-15T12:29:37;13.20;;;10.13;;
8572;SDS011;4324;42.012;24.872;2023-01-15T12:32:10;11.77;;;9.13;;
8572;SDS011;4324;42.012;24.872;2023-01-15T12:34:43;14.47;;;10.50;;
8572;SDS011;4324;42.012;24.872;2023-01-15T12:37:16;12.57;;;9.90;;
8572;SDS011;4324;42.012;24.872;2023-01-15T12:39:50;15.30;;;11.37;;
8572;SDS011;4324;42.012;24.872;2023-01-15T12:42:22;14.50;;;11.03;;
8572;SDS011;4324;42.012;24.872;2023-01-15T12:45:09;18.13;;;12.27;;
8572;SDS011;4324;42.012;24.872;2023-01-15T12:47:41;17.60;;;12.27;;
8572;SDS011;4324;42.012;24.872;2023-01-15T12:50:21;18.30;;;14.30;;
8572;SDS011;4324;42.012;24.872;2023-01-15T12:52:56;14.10;;;12.57;;
8572;SDS011;4324;42.012;24.872;2023-01-15T12:55:28;14.73;;;13.13;;
8572;SDS011;4324;42.012;24.872;2023-01-15T12:57:59;13.03;;;9.47;;
8572;SDS011;4324;42.012;24.872;2023-01-15T13:00:32;13.40;;;10.27;;
8572;SDS011;4324;42.012;24.872;2023-01-15T13:03:06;15.53;;;10.63;;
8572;SDS011;4324;42.012;24.872;2023-01-15T13:05:45;13.47;;;10.30;;
8572;SDS011;4324;42.012;24.872;2023-01-15T13:08:17;14.33;;;11.20;;
8572;SDS011;4324;42.012;24.872;2023-01-15T13:10:51;16.30;;;13.03;;
8572;SDS011;4324;42.012;24.872;2023-01-15T13:13:20;19.73;;;15.53;;
8572;SDS011;4324;42.012;24.872;2023-01-15T13:15:54;14.57;;;12.17;;
8572;SDS011;4324;42.012;24.872;2023-01-15T13:18:30;14.07;;;12.23;;
8572;SDS011;4324;42.012;24.872;2023-01-15T13:21:04;15.33;;;11.57;;
8572;SDS011;4324;42.012;24.872;2023-01-15T13:23:40;20.37;;;14.97;;
8572;SDS011;4324;42.012;24.872;2023-01-15T13:26:23;18.63;;;11.77;;
8572;SDS011;4324;42.012;24.872;2023-01-15T13:29:12;15.00;;;10.57;;
8572;SDS011;4324;42.012;24.872;2023-01-15T13:31:52;15.27;;;10.80;;
8572;SDS011;4324;42.012;24.872;2023-01-15T13:34:27;17.40;;;13.13;;
8572;SDS011;4324;42.012;24.872;2023-01-15T13:36:57;15.47;;;11.47;;
8572;SDS011;4324;42.012;24.872;2023-01-15T13:39:31;15.83;;;11.30;;
8572;SDS011;4324;42.012;24.872;2023-01-15T13:42:04;18.13;;;12.13;;
8572;SDS011;4324;42.012;24.872;2023-01-15T13:44:55;18.60;;;12.30;;
8572;SDS011;4324;42.012;24.872;2023-01-15T13:47:25;17.57;;;12.83;;
8572;SDS011;4324;42.012;24.872;2023-01-15T13:49:57;19.87;;;12.53;;
8572;SDS011;4324;42.012;24.872;2023-01-15T13:52:26;19.50;;;12.47;;
8572;SDS011;4324;42.012;24.872;2023-01-15T13:54:57;22.30;;;15.17;;
8572;SDS011;4324;42.012;24.872;2023-01-15T13:57:31;20.10;;;13.90;;
8572;SDS011;4324;42.012;24.872;2023-01-15T14:00:00;19.03;;;13.67;;
8572;SDS011;4324;42.012;24.872;2023-01-15T14:02:29;18.17;;;13.17;;
8572;SDS011;4324;42.012;24.872;2023-01-15T14:04:59;21.40;;;13.73;;
8572;SDS011;4324;42.012;24.872;2023-01-15T14:07:37;18.40;;;11.83;;
8572;SDS011;4324;42.012;24.872;2023-01-15T14:10:08;18.17;;;13.27;;
8572;SDS011;4324;42.012;24.872;2023-01-15T14:12:39;20.30;;;14.43;;
8572;SDS011;4324;42.012;24.872;2023-01-15T14:15:18;20.20;;;14.53;;
8572;SDS011;4324;42.012;24.872;2023-01-15T14:17:56;21.13;;;14.70;;
8572;SDS011;4324;42.012;24.872;2023-01-15T14:20:48;22.20;;;14.60;;
8572;SDS011;4324;42.012;24.872;2023-01-15T14:23:28;19.27;;;13.80;;
8572;SDS011;4324;42.012;24.872;2023-01-15T14:26:10;19.80;;;14.20;;
8572;SDS011;4324;42.012;24.872;2023-01-15T14:28:50;19.37;;;12.77;;
8572;SDS011;4324;42.012;24.872;2023-01-15T14:31:38;21.83;;;14.90;;
8572;SDS011;4324;42.012;24.872;2023-01-15T14:34:15;20.80;;;14.50;;
8572;SDS011;4324;42.012;24.872;2023-01-15T14:36:54;19.83;;;15.20;;
8572;SDS011;4324;42.012;24.872;2023-01-15T14:39:27;19.37;;;13.70;;
8572;SDS011;4324;42.012;24.872;2023-01-15T14:42:06;25.90;;;16.27;;
8572;SDS011;4324;42.012;24.872;2023-01-15T14:44:55;24.63;;;17.83;;
8572;SDS011;4324;42.012;24.872;2023-01-15T14:47:27;22.83;;;16.33;;
8572;SDS011;4324;42.012;24.872;2023-01-15T14:50:01;27.17;;;15.90;;
8572;SDS011;4324;42.012;24.872;2023-01-15T14:52:47;20.00;;;13.37;;
8572;SDS011;4324;42.012;24.872;2023-01-15T14:55:15;23.90;;;16.53;;
8572;SDS011;4324;42.012;24.872;2023-01-15T14:57:45;23.70;;;15.47;;
8572;SDS011;4324;42.012;24.872;2023-01-15T15:00:17;18.90;;;13.13;;
8572;SDS011;4324;42.012;24.872;2023-01-15T15:02:47;22.73;;;15.87;;
8572;SDS011;4324;42.012;24.872;2023-01-15T15:05:15;21.13;;;14.47;;
8572;SDS011;4324;42.012;24.872;2023-01-15T15:07:45;24.43;;;16.87;;
8572;SDS011;4324;42.012;24.872;2023-01-15T15:10:19;25.00;;;16.90;;
8572;SDS011;4324;42.012;24.872;2023-01-15T15:12:52;21.40;;;17.10;;
8572;SDS011;4324;42.012;24.872;2023-01-15T15:15:28;24.90;;;16.63;;
8572;SDS011;4324;42.012;24.872;2023-01-15T15:18:06;23.00;;;15.20;;
8572;SDS011;4324;42.012;24.872;2023-01-15T15:20:45;19.43;;;15.07;;
8572;SDS011;4324;42.012;24.872;2023-01-15T15:23:19;20.63;;;14.93;;